sensor_id;sensor_type;location;lat;lon;timestamp;P1;durP1;ratioP1;P2;durP2;ratioP2
68944;SDS011;55984;48.790;8.990;2023-07-29T00:01:09;16.20;;;7.53;;
68944;SDS011;55984;48.790;8.990;2023-07-29T00:03:37;17.07;;;8.00;;
68944;SDS011;55984;48.790;8.990;2023-07-29T00:06:03;15.80;;;7.17;;
68944;SDS011;55984;48.790;8.990;2023-07-29T00:08:29;19.83;;;7.53;;
68944;SDS011;55984;48.790;8.990;2023-07-29T00:10:54;12.13;;;6.50;;
68944;SDS011;55984;48.790;8.990;2023-07-29T00:13:21;14.40;;;7.70;;
68944;SDS011;55984;48.790;8.990;2023-07-29T00:15:46;13.60;;;6.93;;
68944;SDS011;55984;48.790;8.990;2023-07-29T00:18:12;16.23;;;6.87;;
68944;SDS011;55984;48.790;8.990;2023-07-29T00:20:38;19.07;;;7.20;;
68944;SDS011;55984;48.790;8.990;2023-07-29T00:23:04;11.80;;;6.83;;
68944;SDS011;55984;48.790;8.990;2023-07-29T00:25:30;12.90;;;6.57;;
68944;SDS011;55984;48.790;8.990;2023-07-29T00:27:56;13.37;;;6.47;;
68944;SDS011;55984;48.790;8.990;2023-07-29T00:30:22;13.13;;;7.00;;
68944;SDS011;55984;48.790;8.990;2023-07-29T00:32:48;16.97;;;7.30;;
68944;SDS011;55984;48.790;8.990;2023-07-29T00:35:14;10.23;;;6.40;;
68944;SDS011;55984;48.790;8.990;2023-07-29T00:37:40;11.70;;;7.10;;
68944;SDS011;55984;48.790;8.990;2023-07-29T00:40:08;12.33;;;7.17;;
68944;SDS011;55984;48.790;8.990;2023-07-29T00:42:40;13.80;;;6.77;;
68944;SDS011;55984;48.790;8.990;2023-07-29T00:45:07;13.30;;;6.90;;
68944;SDS011;55984;48.790;8.990;2023-07-29T00:47:34;15.53;;;7.00;;
68944;SDS011;55984;48.790;8.990;2023-07-29T00:50:00;10.80;;;5.93;;
68944;SDS011;55984;48.790;8.990;2023-07-29T00:52:26;9.97;;;5.97;;
68944;SDS011;55984;48.790;8.990;2023-07-29T00:54:52;11.70;;;5.73;;
68944;SDS011;55984;48.790;8.990;2023-07-29T00:57:18;8.30;;;5.53;;
68944;SDS011;55984;48.790;8.990;2023-07-29T00:59:44;10.87;;;6.03;;
68944;SDS011;55984;48.790;8.990;2023-07-29T01:02:10;7.70;;;5.47;;
68944;SDS011;55984;48.790;8.990;2023-07-29T01:04:36;10.30;;;5.20;;
68944;SDS011;55984;48.790;8.990;2023-07-29T01:09:34;8.17;;;5.50;;
68944;SDS011;55984;48.790;8.990;2023-07-29T01:12:20;8.93;;;5.13;;
68944;SDS011;55984;48.790;8.990;2023-07-29T01:14:55;7.00;;;4.80;;
68944;SDS011;55984;48.790;8.990;2023-07-29T01:17:23;9.17;;;5.40;;
68944;SDS011;55984;48.790;8.990;2023-07-29T01:19:59;9.50;;;4.97;;
68944;SDS011;55984;48.790;8.990;2023-07-29T01:22:28;7.70;;;4.77;;
68944;SDS011;55984;48.790;8.990;2023-07-29T01:24:56;8.27;;;4.27;;
68944;SDS011;55984;48.790;8.990;2023-07-29T01:27:23;7.97;;;4.70;;
68944;SDS011;55984;48.790;8.990;2023-07-29T01:29:49;9.00;;;5.00;;
68944;SDS011;55984;48.790;8.990;2023-07-29T01:32:17;5.90;;;4.43;;
68944;SDS011;55984;48.790;8.990;2023-07-29T01:35:01;11.60;;;4.80;;
68944;SDS011;55984;48.790;8.990;2023-07-29T01:37:34;5.97;;;4.10;;
68944;SDS011;55984;48.790;8.990;2023-07-29T01:40:03;8.03;;;4.57;;
68944;SDS011;55984;48.790;8.990;2023-07-29T01:42:30;6.10;;;4.30;;
68944;SDS011;55984;48.790;8.990;2023-07-29T01:44:57;8.20;;;4.43;;
68944;SDS011;55984;48.790;8.990;2023-07-29T01:47:23;9.43;;;4.07;;
68944;SDS011;55984;48.790;8.990;2023-07-29T01:49:48;6.93;;;4.37;;
68944;SDS011;55984;48.790;8.990;2023-07-29T01:52:14;6.47;;;4.80;;
68944;SDS011;55984;48.790;8.990;2023-07-29T01:54:40;5.83;;;4.00;;
68944;SDS011;55984;48.790;8.990;2023-07-29T01:57:06;10.83;;;4.37;;
68944;SDS011;55984;48.790;8.990;2023-07-29T01:59:34;10.33;;;4.33;;
68944;SDS011;55984;48.790;8.990;2023-07-29T02:02:00;7.83;;;4.40;;
68944;SDS011;55984;48.790;8.990;2023-07-29T02:04:26;7.43;;;4.40;;
68944;SDS011;55984;48.790;8.990;2023-07-29T02:06:52;10.90;;;4.73;;
68944;SDS011;55984;48.790;8.990;2023-07-29T02:09:18;6.97;;;4.30;;
68944;SDS011;55984;48.790;8.990;2023-07-29T02:11:44;10.60;;;4.60;;
68944;SDS011;55984;48.790;8.990;2023-07-29T02:14:10;7.23;;;4.33;;
68944;SDS011;55984;48.790;8.990;2023-07-29T02:16:36;8.13;;;4.60;;
68944;SDS011;55984;48.790;8.990;2023-07-29T02:19:03;8.07;;;4.80;;
68944;SDS011;55984;48.790;8.990;2023-07-29T02:21:29;7.97;;;5.07;;
68944;SDS011;55984;48.790;8.990;2023-07-29T02:23:55;6.50;;;4.30;;
68944;SDS011;55984;48.790;8.990;2023-07-29T02:26:22;6.07;;;4.87;;
68944;SDS011;55984;48.790;8.990;2023-07-29T02:28:48;7.80;;;4.20;;
68944;SDS011;55984;48.790;8.990;2023-07-29T02:31:15;7.20;;;4.13;;
68944;SDS011;55984;48.790;8.990;2023-07-29T02:33:44;6.43;;;4.50;;
68944;SDS011;55984;48.790;8.990;2023-07-29T02:36:11;7.70;;;4.73;;
68944;SDS011;55984;48.790;8.990;2023-07-29T02:38:40;8.43;;;4.67;;
68944;SDS011;55984;48.790;8.990;2023-07-29T02:41:08;9.03;;;4.30;;
68944;SDS011;55984;48.790;8.990;2023-07-29T02:43:35;5.50;;;4.13;;
68944;SDS011;55984;48.790;8.990;2023-07-29T02:46:01;6.50;;;4.30;;
68944;SDS011;55984;48.790;8.990;2023-07-29T02:48:28;9.23;;;4.40;;
68944;SDS011;55984;48.790;8.990;2023-07-29T02:50:54;8.13;;;4.67;;
68944;SDS011;55984;48.790;8.990;2023-07-29T02:53:21;6.63;;;4.60;;
68944;SDS011;55984;48.790;8.990;2023-07-29T02:55:48;5.83;;;4.30;;
68944;SDS011;55984;48.790;8.990;2023-07-29T02:58:14;7.47;;;4.50;;
68944;SDS011;55984;48.790;8.990;2023-07-29T03:00:40;9.60;;;4.40;;
68944;SDS011;55984;48.790;8.990;2023-07-29T03:03:07;9.17;;;4.53;;
68944;SDS011;55984;48.790;8.990;2023-07-29T03:05:33;10.93;;;4.63;;
68944;SDS011;55984;48.790;8.990;2023-07-29T03:07:59;8.87;;;4.20;;
68944;SDS011;55984;48.790;8.990;2023-07-29T03:10:25;8.33;;;4.30;;
68944;SDS011;55984;48.790;8.990;2023-07-29T03:12:54;8.40;;;4.60;;
68944;SDS011;55984;48.790;8.990;2023-07-29T03:15:23;8.60;;;4.40;;
68944;SDS011;55984;48.790;8.990;2023-07-29T03:17:50;6.20;;;4.40;;
68944;SDS011;55984;48.790;8.990;2023-07-29T03:20:16;6.07;;;4.20;;
68944;SDS011;55984;48.790;8.990;2023-07-29T03:22:45;9.30;;;4.97;;
68944;SDS011;55984;48.790;8.990;2023-07-29T03:25:11;6.87;;;4.43;;
68944;SDS011;55984;48.790;8.990;2023-07-29T03:30:08;6.43;;;4.53;;
68944;SDS011;55984;48.790;8.990;2023-07-29T03:32:38;6.57;;;4.40;;
68944;SDS011;55984;48.790;8.990;2023-07-29T03:35:10;5.30;;;4.30;;
68944;SDS011;55984;48.790;8.990;2023-07-29T03:37:36;10.17;;;4.60;;
68944;SDS011;55984;48.790;8.990;2023-07-29T03:40:02;7.10;;;4.67;;
68944;SDS011;55984;48.790;8.990;2023-07-29T03:42:29;7.17;;;4.30;;
68944;SDS011;55984;48.790;8.990;2023-07-29T03:44:55;9.80;;;4.50;;
68944;SDS011;55984;48.790;8.990;2023-07-29T03:47:24;8.90;;;4.53;;
68944;SDS011;55984;48.790;8.990;2023-07-29T03:49:50;9.47;;;4.97;;
68944;SDS011;55984;48.790;8.990;2023-07-29T03:52:15;11.17;;;5.00;;
68944;SDS011;55984;48.790;8.990;2023-07-29T03:54:41;8.70;;;4.97;;
68944;SDS011;55984;48.790;8.990;2023-07-29T03:57:07;7.87;;;4.77;;
68944;SDS011;55984;48.790;8.990;2023-07-29T03:59:33;8.50;;;5.00;;
68944;SDS011;55984;48.790;8.990;2023-07-29T04:01:59;9.37;;;5.20;;
68944;SDS011;55984;48.790;8.990;2023-07-29T04:04:25;16.07;;;5.80;;
68944;SDS011;55984;48.790;8.990;2023-07-29T04:06:51;7.87;;;4.70;;
68944;SDS011;55984;48.790;8.990;2023-07-29T04:09:17;9.10;;;5.13;;
68944;SDS011;55984;48.790;8.990;2023-07-29T04:11:49;7.80;;;4.97;;
68944;SDS011;55984;48.790;8.990;2023-07-29T04:14:15;8.80;;;5.00;;
68944;SDS011;55984;48.790;8.990;2023-07-29T04:16:41;9.50;;;5.50;;
68944;SDS011;55984;48.790;8.990;2023-07-29T04:19:11;11.97;;;5.30;;
68944;SDS011;55984;48.790;8.990;2023-07-29T04:21:37;9.70;;;5.17;;
68944;SDS011;55984;48.790;8.990;2023-07-29T04:24:05;8.30;;;5.43;;
68944;SDS011;55984;48.790;8.990;2023-07-29T04:26:31;11.53;;;5.73;;
68944;SDS011;55984;48.790;8.990;2023-07-29T04:28:57;17.37;;;4.90;;
68944;SDS011;55984;48.790;8.990;2023-07-29T04:31:24;9.27;;;5.40;;
68944;SDS011;55984;48.790;8.990;2023-07-29T04:33:50;8.93;;;5.80;;
68944;SDS011;55984;48.790;8.990;2023-07-29T04:36:16;10.77;;;5.60;;
68944;SDS011;55984;48.790;8.990;2023-07-29T04:38:43;8.20;;;5.87;;
68944;SDS011;55984;48.790;8.990;2023-07-29T04:41:09;9.73;;;5.30;;
68944;SDS011;55984;48.790;8.990;2023-07-29T04:43:36;8.77;;;4.90;;
68944;SDS011;55984;48.790;8.990;2023-07-29T04:46:02;7.67;;;5.40;;
68944;SDS011;55984;48.790;8.990;2023-07-29T04:48:28;9.90;;;5.33;;
68944;SDS011;55984;48.790;8.990;2023-07-29T04:50:54;10.77;;;5.67;;
68944;SDS011;55984;48.790;8.990;2023-07-29T04:53:20;10.70;;;5.47;;
68944;SDS011;55984;48.790;8.990;2023-07-29T04:55:47;12.00;;;5.77;;
68944;SDS011;55984;48.790;8.990;2023-07-29T04:58:12;11.17;;;5.07;;
68944;SDS011;55984;48.790;8.990;2023-07-29T05:00:39;7.53;;;5.07;;
68944;SDS011;55984;48.790;8.990;2023-07-29T05:03:04;9.33;;;5.00;;
68944;SDS011;55984;48.790;8.990;2023-07-29T05:05:31;16.03;;;5.70;;
68944;SDS011;55984;48.790;8.990;2023-07-29T05:07:57;10.10;;;5.07;;
68944;SDS011;55984;48.790;8.990;2023-07-29T05:10:23;9.60;;;5.10;;
68944;SDS011;55984;48.790;8.990;2023-07-29T05:12:49;12.00;;;5.77;;
68944;SDS011;55984;48.790;8.990;2023-07-29T05:15:15;6.53;;;4.80;;
68944;SDS011;55984;48.790;8.990;2023-07-29T05:17:43;8.53;;;4.30;;
68944;SDS011;55984;48.790;8.990;2023-07-29T05:20:09;13.80;;;5.10;;
68944;SDS011;55984;48.790;8.990;2023-07-29T05:22:36;9.67;;;5.10;;
68944;SDS011;55984;48.790;8.990;2023-07-29T05:25:02;10.10;;;4.70;;
68944;SDS011;55984;48.790;8.990;2023-07-29T05:27:28;9.83;;;4.53;;
68944;SDS011;55984;48.790;8.990;2023-07-29T05:29:54;7.40;;;4.50;;
68944;SDS011;55984;48.790;8.990;2023-07-29T05:32:20;6.50;;;3.80;;
68944;SDS011;55984;48.790;8.990;2023-07-29T05:34:47;7.20;;;4.33;;
68944;SDS011;55984;48.790;8.990;2023-07-29T05:37:13;6.30;;;3.60;;
68944;SDS011;55984;48.790;8.990;2023-07-29T05:39:39;7.87;;;3.93;;
68944;SDS011;55984;48.790;8.990;2023-07-29T05:42:07;7.07;;;3.77;;
68944;SDS011;55984;48.790;8.990;2023-07-29T05:44:37;4.80;;;3.43;;
68944;SDS011;55984;48.790;8.990;2023-07-29T05:47:04;12.70;;;3.57;;
68944;SDS011;55984;48.790;8.990;2023-07-29T05:49:32;12.97;;;3.87;;
68944;SDS011;55984;48.790;8.990;2023-07-29T05:51:59;8.00;;;3.27;;
68944;SDS011;55984;48.790;8.990;2023-07-29T05:54:40;4.77;;;3.40;;
68944;SDS011;55984;48.790;8.990;2023-07-29T05:57:08;4.83;;;2.97;;
68944;SDS011;55984;48.790;8.990;2023-07-29T05:59:35;5.40;;;3.10;;
68944;SDS011;55984;48.790;8.990;2023-07-29T06:02:01;3.87;;;3.10;;
68944;SDS011;55984;48.790;8.990;2023-07-29T06:04:27;5.27;;;3.20;;
68944;SDS011;55984;48.790;8.990;2023-07-29T06:06:53;4.10;;;2.70;;
68944;SDS011;55984;48.790;8.990;2023-07-29T06:09:21;5.47;;;3.00;;
68944;SDS011;55984;48.790;8.990;2023-07-29T06:11:47;4.10;;;2.70;;
68944;SDS011;55984;48.790;8.990;2023-07-29T06:14:13;4.83;;;2.90;;
68944;SDS011;55984;48.790;8.990;2023-07-29T06:16:41;3.90;;;2.80;;
68944;SDS011;55984;48.790;8.990;2023-07-29T06:19:07;3.87;;;2.97;;
68944;SDS011;55984;48.790;8.990;2023-07-29T06:21:34;4.13;;;2.60;;
68944;SDS011;55984;48.790;8.990;2023-07-29T06:24:00;6.33;;;2.97;;
68944;SDS011;55984;48.790;8.990;2023-07-29T06:26:27;3.60;;;2.97;;
68944;SDS011;55984;48.790;8.990;2023-07-29T06:28:54;5.40;;;2.80;;
68944;SDS011;55984;48.790;8.990;2023-07-29T06:31:20;13.03;;;4.20;;
68944;SDS011;55984;48.790;8.990;2023-07-29T06:33:46;3.80;;;2.53;;
68944;SDS011;55984;48.790;8.990;2023-07-29T06:36:12;3.83;;;2.67;;
68944;SDS011;55984;48.790;8.990;2023-07-29T06:38:38;3.43;;;2.83;;
68944;SDS011;55984;48.790;8.990;2023-07-29T06:41:04;4.47;;;3.13;;
68944;SDS011;55984;48.790;8.990;2023-07-29T06:43:30;7.23;;;2.57;;
68944;SDS011;55984;48.790;8.990;2023-07-29T06:45:56;4.80;;;3.30;;
68944;SDS011;55984;48.790;8.990;2023-07-29T06:48:22;3.63;;;2.90;;
68944;SDS011;55984;48.790;8.990;2023-07-29T06:50:48;3.80;;;2.90;;
68944;SDS011;55984;48.790;8.990;2023-07-29T06:53:17;8.97;;;3.27;;
68944;SDS011;55984;48.790;8.990;2023-07-29T06:55:44;4.37;;;2.67;;
68944;SDS011;55984;48.790;8.990;2023-07-29T06:58:10;9.40;;;3.03;;
68944;SDS011;55984;48.790;8.990;2023-07-29T07:00:36;4.20;;;3.00;;
68944;SDS011;55984;48.790;8.990;2023-07-29T07:03:02;4.80;;;2.90;;
68944;SDS011;55984;48.790;8.990;2023-07-29T07:05:28;4.50;;;2.70;;
68944;SDS011;55984;48.790;8.990;2023-07-29T07:07:54;5.17;;;2.90;;
68944;SDS011;55984;48.790;8.990;2023-07-29T07:10:20;4.03;;;3.00;;
68944;SDS011;55984;48.790;8.990;2023-07-29T07:12:45;4.63;;;2.90;;
68944;SDS011;55984;48.790;8.990;2023-07-29T07:15:11;4.20;;;2.80;;
68944;SDS011;55984;48.790;8.990;2023-07-29T07:17:37;5.43;;;3.33;;
68944;SDS011;55984;48.790;8.990;2023-07-29T07:20:03;4.60;;;2.70;;
68944;SDS011;55984;48.790;8.990;2023-07-29T07:22:30;4.87;;;3.00;;
68944;SDS011;55984;48.790;8.990;2023-07-29T07:24:56;4.90;;;3.00;;
68944;SDS011;55984;48.790;8.990;2023-07-29T07:27:25;5.33;;;3.00;;
68944;SDS011;55984;48.790;8.990;2023-07-29T07:29:57;5.97;;;2.80;;
68944;SDS011;55984;48.790;8.990;2023-07-29T07:32:44;3.60;;;2.83;;
68944;SDS011;55984;48.790;8.990;2023-07-29T07:35:10;5.93;;;2.83;;
68944;SDS011;55984;48.790;8.990;2023-07-29T07:37:36;3.37;;;2.60;;
68944;SDS011;55984;48.790;8.990;2023-07-29T07:40:02;3.53;;;2.77;;
68944;SDS011;55984;48.790;8.990;2023-07-29T07:42:31;3.00;;;2.30;;
68944;SDS011;55984;48.790;8.990;2023-07-29T07:44:58;3.00;;;2.20;;
68944;SDS011;55984;48.790;8.990;2023-07-29T07:47:31;5.20;;;2.50;;
68944;SDS011;55984;48.790;8.990;2023-07-29T07:50:10;4.43;;;2.50;;
68944;SDS011;55984;48.790;8.990;2023-07-29T07:52:36;4.47;;;2.73;;
68944;SDS011;55984;48.790;8.990;2023-07-29T07:55:02;4.03;;;2.37;;
68944;SDS011;55984;48.790;8.990;2023-07-29T07:57:28;5.50;;;2.20;;
68944;SDS011;55984;48.790;8.990;2023-07-29T07:59:54;2.23;;;1.67;;
68944;SDS011;55984;48.790;8.990;2023-07-29T08:02:20;2.67;;;1.97;;
68944;SDS011;55984;48.790;8.990;2023-07-29T08:04:46;2.43;;;1.77;;
68944;SDS011;55984;48.790;8.990;2023-07-29T08:07:12;2.57;;;1.70;;
68944;SDS011;55984;48.790;8.990;2023-07-29T08:09:39;4.77;;;1.80;;
68944;SDS011;55984;48.790;8.990;2023-07-29T08:12:05;5.70;;;2.10;;
68944;SDS011;55984;48.790;8.990;2023-07-29T08:14:31;2.20;;;1.60;;
68944;SDS011;55984;48.790;8.990;2023-07-29T08:16:58;2.13;;;1.77;;
68944;SDS011;55984;48.790;8.990;2023-07-29T08:19:24;2.77;;;1.83;;
68944;SDS011;55984;48.790;8.990;2023-07-29T08:21:50;3.53;;;1.90;;
68944;SDS011;55984;48.790;8.990;2023-07-29T08:24:16;2.70;;;1.97;;
68944;SDS011;55984;48.790;8.990;2023-07-29T08:26:42;5.20;;;2.13;;
68944;SDS011;55984;48.790;8.990;2023-07-29T08:29:07;1.83;;;1.70;;
68944;SDS011;55984;48.790;8.990;2023-07-29T08:31:33;6.60;;;2.00;;
68944;SDS011;55984;48.790;8.990;2023-07-29T08:33:59;9.53;;;2.20;;
68944;SDS011;55984;48.790;8.990;2023-07-29T08:36:26;4.50;;;2.00;;
68944;SDS011;55984;48.790;8.990;2023-07-29T08:38:52;2.10;;;1.70;;
68944;SDS011;55984;48.790;8.990;2023-07-29T08:44:30;2.93;;;1.83;;
68944;SDS011;55984;48.790;8.990;2023-07-29T08:46:58;4.03;;;1.80;;
68944;SDS011;55984;48.790;8.990;2023-07-29T08:49:25;2.40;;;1.80;;
68944;SDS011;55984;48.790;8.990;2023-07-29T08:51:53;3.13;;;1.80;;
68944;SDS011;55984;48.790;8.990;2023-07-29T08:54:19;2.10;;;1.80;;
68944;SDS011;55984;48.790;8.990;2023-07-29T08:56:45;3.03;;;1.80;;
68944;SDS011;55984;48.790;8.990;2023-07-29T08:59:12;3.47;;;1.90;;
68944;SDS011;55984;48.790;8.990;2023-07-29T09:01:39;3.17;;;1.90;;
68944;SDS011;55984;48.790;8.990;2023-07-29T09:04:05;3.20;;;1.90;;
68944;SDS011;55984;48.790;8.990;2023-07-29T09:06:31;2.73;;;1.70;;
68944;SDS011;55984;48.790;8.990;2023-07-29T09:08:58;3.70;;;1.83;;
68944;SDS011;55984;48.790;8.990;2023-07-29T09:11:24;6.93;;;1.63;;
68944;SDS011;55984;48.790;8.990;2023-07-29T09:13:50;3.13;;;1.90;;
68944;SDS011;55984;48.790;8.990;2023-07-29T09:16:18;2.47;;;1.80;;
68944;SDS011;55984;48.790;8.990;2023-07-29T09:18:47;2.77;;;1.80;;
68944;SDS011;55984;48.790;8.990;2023-07-29T09:21:15;3.10;;;1.93;;
68944;SDS011;55984;48.790;8.990;2023-07-29T09:23:43;3.00;;;1.90;;
68944;SDS011;55984;48.790;8.990;2023-07-29T09:26:10;4.70;;;2.00;;
68944;SDS011;55984;48.790;8.990;2023-07-29T09:28:38;2.53;;;1.97;;
68944;SDS011;55984;48.790;8.990;2023-07-29T09:31:06;2.20;;;1.80;;
68944;SDS011;55984;48.790;8.990;2023-07-29T09:33:35;2.50;;;2.10;;
68944;SDS011;55984;48.790;8.990;2023-07-29T09:36:02;3.00;;;2.10;;
68944;SDS011;55984;48.790;8.990;2023-07-29T09:38:34;6.60;;;2.00;;
68944;SDS011;55984;48.790;8.990;2023-07-29T09:41:01;2.87;;;2.30;;
68944;SDS011;55984;48.790;8.990;2023-07-29T09:43:31;3.40;;;2.20;;
68944;SDS011;55984;48.790;8.990;2023-07-29T09:46:01;2.50;;;2.00;;
68944;SDS011;55984;48.790;8.990;2023-07-29T09:48:32;3.47;;;2.37;;
68944;SDS011;55984;48.790;8.990;2023-07-29T09:50:59;4.60;;;2.07;;
68944;SDS011;55984;48.790;8.990;2023-07-29T09:53:25;2.20;;;1.97;;
68944;SDS011;55984;48.790;8.990;2023-07-29T09:55:52;3.20;;;2.10;;
68944;SDS011;55984;48.790;8.990;2023-07-29T09:58:27;3.70;;;2.10;;
68944;SDS011;55984;48.790;8.990;2023-07-29T10:00:53;4.40;;;2.40;;
68944;SDS011;55984;48.790;8.990;2023-07-29T10:03:20;5.13;;;2.50;;
68944;SDS011;55984;48.790;8.990;2023-07-29T10:05:47;3.30;;;2.27;;
68944;SDS011;55984;48.790;8.990;2023-07-29T10:08:13;2.60;;;2.30;;
68944;SDS011;55984;48.790;8.990;2023-07-29T10:10:42;3.20;;;2.40;;
68944;SDS011;55984;48.790;8.990;2023-07-29T10:13:09;3.00;;;2.00;;
68944;SDS011;55984;48.790;8.990;2023-07-29T10:15:35;5.37;;;2.60;;
68944;SDS011;55984;48.790;8.990;2023-07-29T10:18:02;3.43;;;2.27;;
68944;SDS011;55984;48.790;8.990;2023-07-29T10:20:29;6.00;;;2.30;;
68944;SDS011;55984;48.790;8.990;2023-07-29T10:22:58;4.90;;;2.07;;
68944;SDS011;55984;48.790;8.990;2023-07-29T10:25:25;4.17;;;2.10;;
68944;SDS011;55984;48.790;8.990;2023-07-29T10:28:04;2.20;;;1.90;;
68944;SDS011;55984;48.790;8.990;2023-07-29T10:30:31;2.97;;;2.20;;
68944;SDS011;55984;48.790;8.990;2023-07-29T10:32:58;11.17;;;2.53;;
68944;SDS011;55984;48.790;8.990;2023-07-29T10:35:27;3.60;;;2.00;;
68944;SDS011;55984;48.790;8.990;2023-07-29T10:37:53;2.90;;;2.30;;
68944;SDS011;55984;48.790;8.990;2023-07-29T10:40:20;7.10;;;2.30;;
68944;SDS011;55984;48.790;8.990;2023-07-29T10:42:59;2.70;;;2.10;;
68944;SDS011;55984;48.790;8.990;2023-07-29T10:45:27;3.07;;;2.00;;
68944;SDS011;55984;48.790;8.990;2023-07-29T10:48:12;2.67;;;2.00;;
68944;SDS011;55984;48.790;8.990;2023-07-29T10:56:35;2.83;;;2.10;;
68944;SDS011;55984;48.790;8.990;2023-07-29T11:01:37;3.00;;;2.03;;
68944;SDS011;55984;48.790;8.990;2023-07-29T11:15:20;4.60;;;2.00;;
68944;SDS011;55984;48.790;8.990;2023-07-29T11:17:53;2.77;;;2.03;;
68944;SDS011;55984;48.790;8.990;2023-07-29T11:20:26;2.17;;;1.93;;
68944;SDS011;55984;48.790;8.990;2023-07-29T11:22:55;2.60;;;1.90;;
68944;SDS011;55984;48.790;8.990;2023-07-29T11:25:23;3.70;;;2.20;;
68944;SDS011;55984;48.790;8.990;2023-07-29T11:27:53;3.57;;;2.20;;
68944;SDS011;55984;48.790;8.990;2023-07-29T11:30:21;2.30;;;1.93;;
68944;SDS011;55984;48.790;8.990;2023-07-29T11:32:48;2.53;;;2.10;;
68944;SDS011;55984;48.790;8.990;2023-07-29T11:35:15;2.70;;;2.17;;
68944;SDS011;55984;48.790;8.990;2023-07-29T11:37:44;3.77;;;2.10;;
68944;SDS011;55984;48.790;8.990;2023-07-29T11:40:14;2.93;;;2.20;;
68944;SDS011;55984;48.790;8.990;2023-07-29T11:42:42;3.67;;;2.00;;
68944;SDS011;55984;48.790;8.990;2023-07-29T11:45:08;2.67;;;2.10;;
68944;SDS011;55984;48.790;8.990;2023-07-29T11:47:34;3.00;;;2.40;;
68944;SDS011;55984;48.790;8.990;2023-07-29T11:50:02;6.13;;;2.10;;
68944;SDS011;55984;48.790;8.990;2023-07-29T11:52:34;3.70;;;2.43;;
68944;SDS011;55984;48.790;8.990;2023-07-29T11:55:01;2.60;;;2.00;;
68944;SDS011;55984;48.790;8.990;2023-07-29T11:57:28;4.20;;;2.23;;
68944;SDS011;55984;48.790;8.990;2023-07-29T11:59:55;2.20;;;2.00;;
68944;SDS011;55984;48.790;8.990;2023-07-29T12:02:21;3.00;;;2.33;;
68944;SDS011;55984;48.790;8.990;2023-07-29T12:04:49;2.80;;;2.30;;
68944;SDS011;55984;48.790;8.990;2023-07-29T12:07:16;3.80;;;2.40;;
68944;SDS011;55984;48.790;8.990;2023-07-29T12:09:43;2.70;;;2.40;;
68944;SDS011;55984;48.790;8.990;2023-07-29T12:12:09;7.23;;;2.80;;
68944;SDS011;55984;48.790;8.990;2023-07-29T12:14:35;2.87;;;2.40;;
68944;SDS011;55984;48.790;8.990;2023-07-29T12:17:04;2.93;;;2.33;;
68944;SDS011;55984;48.790;8.990;2023-07-29T12:19:35;3.70;;;2.27;;
68944;SDS011;55984;48.790;8.990;2023-07-29T12:22:03;2.70;;;2.30;;
68944;SDS011;55984;48.790;8.990;2023-07-29T12:24:34;6.40;;;2.30;;
68944;SDS011;55984;48.790;8.990;2023-07-29T12:27:02;3.67;;;2.33;;
68944;SDS011;55984;48.790;8.990;2023-07-29T12:29:28;3.50;;;2.27;;
68944;SDS011;55984;48.790;8.990;2023-07-29T12:31:58;2.90;;;2.50;;
68944;SDS011;55984;48.790;8.990;2023-07-29T12:34:25;3.50;;;2.40;;
68944;SDS011;55984;48.790;8.990;2023-07-29T12:36:56;4.17;;;2.70;;
68944;SDS011;55984;48.790;8.990;2023-07-29T12:41:50;6.33;;;2.33;;
68944;SDS011;55984;48.790;8.990;2023-07-29T12:44:17;2.90;;;2.23;;
68944;SDS011;55984;48.790;8.990;2023-07-29T12:46:43;3.67;;;2.30;;
68944;SDS011;55984;48.790;8.990;2023-07-29T12:49:09;3.47;;;2.60;;
68944;SDS011;55984;48.790;8.990;2023-07-29T12:51:35;3.23;;;2.50;;
68944;SDS011;55984;48.790;8.990;2023-07-29T12:54:02;3.40;;;2.63;;
68944;SDS011;55984;48.790;8.990;2023-07-29T12:56:29;3.50;;;2.73;;
68944;SDS011;55984;48.790;8.990;2023-07-29T12:58:56;5.20;;;2.40;;
68944;SDS011;55984;48.790;8.990;2023-07-29T13:01:25;3.80;;;2.60;;
68944;SDS011;55984;48.790;8.990;2023-07-29T13:03:52;3.00;;;2.53;;
68944;SDS011;55984;48.790;8.990;2023-07-29T13:06:18;3.00;;;2.40;;
68944;SDS011;55984;48.790;8.990;2023-07-29T13:08:45;3.40;;;2.50;;
68944;SDS011;55984;48.790;8.990;2023-07-29T13:11:11;3.80;;;2.50;;
68944;SDS011;55984;48.790;8.990;2023-07-29T13:13:37;4.00;;;2.53;;
68944;SDS011;55984;48.790;8.990;2023-07-29T13:16:03;2.90;;;2.47;;
68944;SDS011;55984;48.790;8.990;2023-07-29T13:18:29;3.40;;;2.50;;
68944;SDS011;55984;48.790;8.990;2023-07-29T13:20:55;4.40;;;2.60;;
68944;SDS011;55984;48.790;8.990;2023-07-29T13:23:22;2.70;;;2.27;;
68944;SDS011;55984;48.790;8.990;2023-07-29T13:25:48;5.00;;;2.80;;
68944;SDS011;55984;48.790;8.990;2023-07-29T13:28:14;2.67;;;2.33;;
68944;SDS011;55984;48.790;8.990;2023-07-29T13:30:39;2.80;;;2.30;;
68944;SDS011;55984;48.790;8.990;2023-07-29T13:33:08;2.83;;;2.30;;
68944;SDS011;55984;48.790;8.990;2023-07-29T13:35:34;5.00;;;2.93;;
68944;SDS011;55984;48.790;8.990;2023-07-29T13:38:00;3.33;;;2.70;;
68944;SDS011;55984;48.790;8.990;2023-07-29T13:40:27;3.13;;;2.40;;
68944;SDS011;55984;48.790;8.990;2023-07-29T13:42:53;4.70;;;2.43;;
68944;SDS011;55984;48.790;8.990;2023-07-29T13:45:19;4.23;;;2.50;;
68944;SDS011;55984;48.790;8.990;2023-07-29T13:47:46;2.97;;;2.40;;
68944;SDS011;55984;48.790;8.990;2023-07-29T13:50:12;3.47;;;2.40;;
68944;SDS011;55984;48.790;8.990;2023-07-29T13:52:38;6.30;;;2.60;;
68944;SDS011;55984;48.790;8.990;2023-07-29T13:55:04;3.47;;;2.50;;
68944;SDS011;55984;48.790;8.990;2023-07-29T13:57:31;3.13;;;2.40;;
68944;SDS011;55984;48.790;8.990;2023-07-29T13:59:57;3.20;;;2.33;;
68944;SDS011;55984;48.790;8.990;2023-07-29T14:02:23;3.30;;;2.40;;
68944;SDS011;55984;48.790;8.990;2023-07-29T14:04:51;4.13;;;2.50;;
68944;SDS011;55984;48.790;8.990;2023-07-29T14:07:17;3.53;;;2.40;;
68944;SDS011;55984;48.790;8.990;2023-07-29T14:09:43;2.40;;;2.00;;
68944;SDS011;55984;48.790;8.990;2023-07-29T14:12:08;3.30;;;2.40;;
68944;SDS011;55984;48.790;8.990;2023-07-29T14:14:39;3.10;;;2.70;;
68944;SDS011;55984;48.790;8.990;2023-07-29T14:17:05;3.40;;;2.67;;
68944;SDS011;55984;48.790;8.990;2023-07-29T14:19:33;5.40;;;2.80;;
68944;SDS011;55984;48.790;8.990;2023-07-29T14:21:59;3.33;;;2.73;;
68944;SDS011;55984;48.790;8.990;2023-07-29T14:24:25;3.50;;;2.43;;
68944;SDS011;55984;48.790;8.990;2023-07-29T14:26:51;3.93;;;2.60;;
68944;SDS011;55984;48.790;8.990;2023-07-29T14:29:17;3.10;;;2.50;;
68944;SDS011;55984;48.790;8.990;2023-07-29T14:31:43;3.40;;;2.60;;
68944;SDS011;55984;48.790;8.990;2023-07-29T14:34:09;3.70;;;2.60;;
68944;SDS011;55984;48.790;8.990;2023-07-29T14:36:35;3.83;;;2.73;;
68944;SDS011;55984;48.790;8.990;2023-07-29T14:39:02;4.20;;;2.70;;
68944;SDS011;55984;48.790;8.990;2023-07-29T14:41:28;3.60;;;2.50;;
68944;SDS011;55984;48.790;8.990;2023-07-29T14:43:55;4.93;;;2.60;;
68944;SDS011;55984;48.790;8.990;2023-07-29T14:46:21;4.13;;;2.80;;
68944;SDS011;55984;48.790;8.990;2023-07-29T14:48:47;2.90;;;2.50;;
68944;SDS011;55984;48.790;8.990;2023-07-29T14:51:13;4.20;;;2.70;;
68944;SDS011;55984;48.790;8.990;2023-07-29T14:53:42;5.83;;;2.33;;
68944;SDS011;55984;48.790;8.990;2023-07-29T14:56:09;4.40;;;2.60;;
68944;SDS011;55984;48.790;8.990;2023-07-29T14:58:35;3.70;;;2.57;;
68944;SDS011;55984;48.790;8.990;2023-07-29T15:01:00;5.33;;;2.60;;
68944;SDS011;55984;48.790;8.990;2023-07-29T15:03:26;4.77;;;2.53;;
68944;SDS011;55984;48.790;8.990;2023-07-29T15:05:52;3.63;;;2.80;;
68944;SDS011;55984;48.790;8.990;2023-07-29T15:08:18;2.93;;;2.43;;
68944;SDS011;55984;48.790;8.990;2023-07-29T15:10:47;4.03;;;2.80;;
68944;SDS011;55984;48.790;8.990;2023-07-29T15:13:13;2.93;;;2.20;;
68944;SDS011;55984;48.790;8.990;2023-07-29T15:15:42;3.70;;;2.63;;